Time;durP1;ratioP1;P1;durP2;ratioP2;P2;SDS_P1;SDS_P2;PMS_P1;PMS_P2;Temp;Humidity;BMP_temperature;BMP_pressure;BME280_temperature;BME280_humidity;BME280_pressure;Samples;Min_cycle;Max_cycle;Signal;HPM_P1;HPM_P2
2023/05/14 00:01:18;;;;;;;5.60;3.80;;;;;;;13.03;100.00;93508.25;5068947;28;20122;-71
2023/05/14 00:03:44;;;;;;;9.68;6.68;;;;;;;12.92;100.00;93507.19;5066874;28;20053;-71
2023/05/14 00:06:11;;;;;;;9.05;6.35;;;;;;;12.80;100.00;93501.97;5069211;28;20460;-71
2023/05/14 00:08:38;;;;;;;11.80;7.70;;;;;;;12.73;100.00;93501.25;5066250;28;20107;-71
2023/05/14 00:11:05;;;;;;;12.27;8.30;;;;;;;12.60;100.00;93491.91;5069185;28;20520;-71
2023/05/14 00:13:31;;;;;;;15.15;8.30;;;;;;;12.49;100.00;93490.03;5068036;28;20127;-71
2023/05/14 00:15:58;;;;;;;12.30;8.15;;;;;;;12.49;100.00;93477.91;5068249;28;20574;-71
2023/05/14 00:18:26;;;;;;;12.98;9.00;;;;;;;12.43;100.00;93478.78;5069389;28;20125;-71
2023/05/14 00:20:54;;;;;;;17.13;8.50;;;;;;;12.26;100.00;93475.97;5069043;28;20048;-71
2023/05/14 00:23:21;;;;;;;12.25;8.18;;;;;;;12.24;100.00;93472.81;5069238;28;20049;-71
2023/05/14 00:25:48;;;;;;;14.00;8.77;;;;;;;12.18;100.00;93471.91;5067394;28;20053;-71
2023/05/14 00:28:15;;;;;;;10.18;7.65;;;;;;;12.26;100.00;93474.19;5056779;28;20052;-71
2023/05/14 00:30:41;;;;;;;12.52;7.78;;;;;;;12.11;100.00;93478.88;5067388;28;20102;-71
2023/05/14 00:33:08;;;;;;;10.60;7.03;;;;;;;12.14;100.00;93470.75;5060676;28;20057;-71
2023/05/14 00:35:36;;;;;;;11.68;6.93;;;;;;;12.22;100.00;93467.88;5063680;28;20044;-71
2023/05/14 00:38:04;;;;;;;10.70;7.28;;;;;;;12.18;100.00;93456.44;5068611;28;20094;-71
2023/05/14 00:40:31;;;;;;;12.23;7.22;;;;;;;12.25;100.00;93461.50;5068677;28;20053;-71
2023/05/14 00:42:57;;;;;;;10.23;6.45;;;;;;;12.22;100.00;93447.28;5068718;28;20055;-71
2023/05/14 00:45:24;;;;;;;10.77;6.95;;;;;;;12.26;100.00;93453.59;5067980;28;20193;-71
2023/05/14 00:47:52;;;;;;;11.48;6.35;;;;;;;12.25;100.00;93451.22;5068472;28;20060;-71
2023/05/14 00:50:18;;;;;;;13.45;7.38;;;;;;;12.23;100.00;93458.38;5068445;28;20440;-71
2023/05/14 00:52:47;;;;;;;11.00;6.75;;;;;;;12.16;100.00;93458.44;5068594;28;20080;-71
2023/05/14 00:55:16;;;;;;;9.70;6.80;;;;;;;12.00;100.00;93431.44;5064787;28;20056;-71
2023/05/14 00:57:43;;;;;;;11.73;7.00;;;;;;;12.04;100.00;93448.06;5048130;28;20053;-71
2023/05/14 01:00:11;;;;;;;9.70;6.10;;;;;;;11.99;100.00;93455.59;5065826;28;20091;-71
2023/05/14 01:02:37;;;;;;;9.30;6.50;;;;;;;11.97;100.00;93449.88;5067960;28;20093;-71
2023/05/14 01:05:05;;;;;;;9.85;6.38;;;;;;;12.01;100.00;93451.03;5067993;28;20044;-71
2023/05/14 01:07:39;;;;;;;8.23;5.75;;;;;;;11.93;100.00;93454.66;5068147;28;20094;-71
2023/05/14 01:10:11;;;;;;;9.70;6.60;;;;;;;11.89;100.00;93461.22;5067770;28;20067;-71
2023/05/14 01:12:44;;;;;;;9.45;6.28;;;;;;;11.96;100.00;93468.88;5067980;28;20121;-71
2023/05/14 01:15:15;;;;;;;8.52;5.53;;;;;;;11.66;100.00;93464.38;5067704;28;20048;-71
2023/05/14 01:17:46;;;;;;;11.52;6.93;;;;;;;11.62;100.00;93464.78;5067359;28;20049;-71
2023/05/14 01:20:13;;;;;;;14.50;7.82;;;;;;;11.60;100.00;93453.94;5068132;28;20143;-71
2023/05/14 01:22:42;;;;;;;9.90;6.60;;;;;;;11.83;100.00;93467.22;5057532;28;20053;-71
2023/05/14 01:25:09;;;;;;;9.20;6.50;;;;;;;11.98;100.00;93469.44;5060776;28;20047;-71
2023/05/14 01:27:42;;;;;;;11.35;7.03;;;;;;;12.06;100.00;93450.41;5059029;28;20044;-71
2023/05/14 01:30:16;;;;;;;11.65;7.38;;;;;;;12.12;100.00;93454.69;5061871;28;20053;-71
2023/05/14 01:32:47;;;;;;;11.15;7.35;;;;;;;12.09;100.00;93463.63;5061107;28;20060;-71
2023/05/14 01:35:15;;;;;;;10.00;6.55;;;;;;;12.15;100.00;93467.97;5067915;28;20052;-71
2023/05/14 01:37:44;;;;;;;11.07;7.30;;;;;;;12.25;100.00;93472.63;5067197;28;20064;-71
2023/05/14 01:40:11;;;;;;;11.63;7.38;;;;;;;12.14;100.00;93471.50;5067470;28;20118;-71
2023/05/14 01:42:38;;;;;;;11.73;6.45;;;;;;;12.12;100.00;93472.72;5066663;28;20049;-71
2023/05/14 01:45:06;;;;;;;8.48;6.70;;;;;;;12.02;100.00;93457.75;5067177;28;20421;-71
2023/05/14 01:47:33;;;;;;;14.02;7.38;;;;;;;12.16;100.00;93474.69;5067253;28;20130;-71
2023/05/14 01:50:00;;;;;;;9.82;7.00;;;;;;;12.13;100.00;93476.91;5067039;28;20055;-71
2023/05/14 01:52:27;;;;;;;11.30;6.90;;;;;;;12.14;100.00;93476.66;5067350;28;20052;-71
2023/05/14 01:54:57;;;;;;;8.85;6.05;;;;;;;12.02;100.00;93474.00;5066498;28;20125;-71
2023/05/14 01:57:24;;;;;;;9.93;6.10;;;;;;;11.86;100.00;93474.53;5049217;28;20125;-71
2023/05/14 01:59:50;;;;;;;8.13;6.07;;;;;;;11.89;100.00;93482.59;5066845;28;20501;-71
2023/05/14 02:02:17;;;;;;;11.82;7.20;;;;;;;11.94;100.00;93489.69;5067285;28;20068;-72
2023/05/14 02:04:44;;;;;;;11.13;6.38;;;;;;;12.00;100.00;93480.34;5067376;28;20048;-72
2023/05/14 02:07:10;;;;;;;8.52;6.00;;;;;;;12.08;100.00;93495.53;5066735;28;20048;-72
2023/05/14 02:09:38;;;;;;;7.75;6.10;;;;;;;12.09;100.00;93499.69;5067477;28;20567;-72
2023/05/14 02:12:08;;;;;;;11.25;5.97;;;;;;;12.12;100.00;93488.97;5066770;28;20076;-72
2023/05/14 02:14:35;;;;;;;11.70;6.00;;;;;;;12.22;100.00;93503.94;5067107;28;20045;-72
2023/05/14 02:17:02;;;;;;;9.73;6.15;;;;;;;12.21;100.00;93493.88;5067097;28;20405;-72
2023/05/14 02:19:29;;;;;;;9.90;6.78;;;;;;;12.29;100.00;93507.25;5067467;28;20044;-71
2023/05/14 02:21:56;;;;;;;9.25;6.00;;;;;;;12.34;100.00;93508.38;5066800;28;20126;-71
2023/05/14 02:24:22;;;;;;;9.82;6.13;;;;;;;12.37;100.00;93510.56;5066932;28;20059;-72
2023/05/14 02:26:49;;;;;;;9.05;6.00;;;;;;;12.36;100.00;93514.91;5066515;28;20044;-72
2023/05/14 02:29:17;;;;;;;9.85;5.82;;;;;;;12.38;100.00;93512.13;5067073;28;20504;-72
2023/05/14 02:31:44;;;;;;;9.27;5.68;;;;;;;12.37;100.00;93502.81;5066344;28;20057;-71
2023/05/14 02:34:11;;;;;;;8.00;5.53;;;;;;;12.38;100.00;93501.81;5066971;28;20098;-71
2023/05/14 02:36:37;;;;;;;10.02;5.47;;;;;;;12.33;100.00;93499.88;5066617;28;20049;-72
2023/05/14 02:39:04;;;;;;;7.85;5.68;;;;;;;12.34;100.00;93514.34;5066895;28;20047;-72
2023/05/14 02:41:31;;;;;;;8.90;5.50;;;;;;;12.33;100.00;93517.13;5066615;28;20041;-72
2023/05/14 02:43:58;;;;;;;9.52;6.30;;;;;;;12.34;100.00;93516.13;5066512;28;20560;-72
2023/05/14 02:46:26;;;;;;;9.02;6.45;;;;;;;12.26;100.00;93512.81;5067130;28;20059;-71
2023/05/14 02:48:52;;;;;;;9.85;6.95;;;;;;;12.18;100.00;93513.09;5065927;28;20515;-71
2023/05/14 02:51:20;;;;;;;10.07;7.05;;;;;;;12.12;100.00;93507.00;5066442;28;20044;-71
2023/05/14 02:53:47;;;;;;;12.82;7.30;;;;;;;12.06;100.00;93497.56;5068617;28;20055;-72
2023/05/14 02:56:14;;;;;;;10.75;7.68;;;;;;;11.79;100.00;93490.00;5058535;28;20110;-72
2023/05/14 02:58:40;;;;;;;11.18;8.02;;;;;;;11.50;100.00;93485.25;5064269;28;20045;-72
2023/05/14 03:01:07;;;;;;;12.93;8.80;;;;;;;11.32;100.00;93478.25;5070279;28;20513;-72
2023/05/14 03:03:37;;;;;;;12.38;10.18;;;;;;;11.19;100.00;93475.75;5069405;28;20049;-72
2023/05/14 03:06:04;;;;;;;14.23;9.77;;;;;;;11.14;100.00;93465.28;5070198;28;20052;-73
2023/05/14 03:08:30;;;;;;;10.27;9.13;;;;;;;11.06;100.00;93479.19;5069751;28;20049;-72
2023/05/14 03:10:57;;;;;;;10.75;8.95;;;;;;;11.16;100.00;93483.88;5061977;28;20497;-72
2023/05/14 03:13:24;;;;;;;11.98;8.98;;;;;;;11.18;100.00;93476.75;5064948;28;20068;-72
2023/05/14 03:15:53;;;;;;;17.98;11.18;;;;;;;11.24;100.00;93478.50;5070200;28;20049;-72
2023/05/14 03:18:20;;;;;;;13.05;9.70;;;;;;;11.28;100.00;93477.09;5069918;28;20045;-72
2023/05/14 03:20:48;;;;;;;12.85;9.45;;;;;;;11.32;100.00;93485.97;5069948;28;20048;-72
2023/05/14 03:23:15;;;;;;;28.67;17.13;;;;;;;11.23;100.00;93488.00;5056017;28;20061;-72
2023/05/14 03:25:42;;;;;;;17.20;11.55;;;;;;;11.19;100.00;93494.53;5069458;28;20041;-72
2023/05/14 03:28:09;;;;;;;14.45;10.40;;;;;;;11.30;100.00;93502.59;5070153;28;20432;-72
2023/05/14 03:30:36;;;;;;;14.98;10.77;;;;;;;11.35;100.00;93503.53;5069743;28;20090;-72
2023/05/14 03:33:03;;;;;;;13.10;8.75;;;;;;;11.46;100.00;93498.75;5069932;28;20055;-72
2023/05/14 03:35:29;;;;;;;15.50;9.30;;;;;;;11.54;100.00;93493.34;5069698;28;20049;-71
2023/05/14 03:37:58;;;;;;;13.60;8.50;;;;;;;11.61;100.00;93486.38;5069696;28;20416;-71
2023/05/14 03:40:25;;;;;;;15.98;10.73;;;;;;;11.66;100.00;93488.31;5069636;28;20048;-71
2023/05/14 03:42:52;;;;;;;18.13;9.82;;;;;;;11.76;100.00;93493.78;5069598;28;20040;-71
2023/05/14 03:45:19;;;;;;;10.82;8.90;;;;;;;11.78;100.00;93496.16;5069411;28;20463;-71
2023/05/14 03:47:45;;;;;;;12.70;8.52;;;;;;;11.77;100.00;93505.66;5068612;28;20122;-71
2023/05/14 03:50:12;;;;;;;14.63;9.32;;;;;;;11.77;100.00;93497.94;5069687;28;20056;-71
2023/05/14 03:52:39;;;;;;;14.45;8.80;;;;;;;11.81;100.00;93500.09;5058509;28;20045;-71
2023/05/14 03:55:08;;;;;;;13.45;10.82;;;;;;;11.73;100.00;93494.22;5060499;28;20056;-71
2023/05/14 03:57:35;;;;;;;12.13;9.88;;;;;;;11.73;100.00;93489.06;5056405;28;20098;-71
2023/05/14 04:00:02;;;;;;;12.75;8.90;;;;;;;11.69;100.00;93495.63;5069232;28;20052;-71
2023/05/14 04:02:29;;;;;;;13.00;8.82;;;;;;;11.73;100.00;93494.22;5069456;28;20412;-71
2023/05/14 04:04:56;;;;;;;12.48;8.25;;;;;;;11.79;100.00;93500.31;5069112;28;20049;-71
2023/05/14 04:07:22;;;;;;;14.43;8.20;;;;;;;11.85;100.00;93501.25;5068582;28;20049;-72
2023/05/14 04:09:49;;;;;;;15.40;8.57;;;;;;;11.90;100.00;93501.44;5068999;28;20057;-71
2023/05/14 04:12:17;;;;;;;12.40;8.07;;;;;;;11.94;100.00;93519.81;5068636;28;20501;-71
2023/05/14 04:14:44;;;;;;;13.10;8.48;;;;;;;11.91;100.00;93518.44;5069422;28;20409;-71
2023/05/14 04:17:11;;;;;;;12.85;8.50;;;;;;;11.96;100.00;93518.59;5069140;28;20093;-71
2023/05/14 04:19:39;;;;;;;14.82;8.05;;;;;;;11.96;100.00;93521.16;5069130;28;20044;-71
2023/05/14 04:22:06;;;;;;;13.75;8.80;;;;;;;12.00;100.00;93526.69;5068812;28;20045;-71
2023/05/14 04:24:32;;;;;;;13.63;7.78;;;;;;;12.01;100.00;93530.84;5069060;28;20080;-71
2023/05/14 04:26:59;;;;;;;11.70;8.77;;;;;;;12.01;100.00;93536.78;5068412;28;20049;-71
2023/05/14 04:29:27;;;;;;;12.63;8.38;;;;;;;12.06;100.00;93545.66;5068850;28;20460;-72
2023/05/14 04:31:54;;;;;;;14.52;8.63;;;;;;;12.13;100.00;93549.78;5068418;28;20056;-72
2023/05/14 04:34:21;;;;;;;14.45;8.27;;;;;;;12.10;100.00;93549.41;5068531;28;20501;-72
2023/05/14 04:36:48;;;;;;;11.65;8.07;;;;;;;12.15;100.00;93547.00;5068379;28;20056;-72
2023/05/14 04:39:15;;;;;;;13.18;7.97;;;;;;;12.17;100.00;93547.56;5068056;28;20051;-72
2023/05/14 04:41:41;;;;;;;13.68;8.73;;;;;;;12.20;100.00;93560.03;5041931;28;20524;-72
2023/05/14 04:44:08;;;;;;;11.60;8.77;;;;;;;12.14;100.00;93558.28;5068257;28;20052;-72
2023/05/14 04:46:36;;;;;;;12.77;8.93;;;;;;;12.21;100.00;93568.56;5068401;28;20051;-72
2023/05/14 04:49:03;;;;;;;12.85;9.88;;;;;;;12.19;100.00;93576.47;5049404;28;20494;-72
2023/05/14 04:51:30;;;;;;;13.57;10.45;;;;;;;12.23;100.00;93584.56;5068194;28;20095;-72
2023/05/14 04:53:57;;;;;;;15.38;10.35;;;;;;;12.23;100.00;93589.72;5068329;28;20131;-72
2023/05/14 04:56:24;;;;;;;15.43;10.95;;;;;;;12.23;100.00;93587.16;5068130;28;20045;-72
2023/05/14 04:58:50;;;;;;;13.82;10.43;;;;;;;12.19;100.00;93584.22;5067776;28;20054;-73
2023/05/14 05:01:17;;;;;;;13.52;10.82;;;;;;;12.25;100.00;93606.53;5068477;28;20060;-73
2023/05/14 05:03:45;;;;;;;16.58;11.35;;;;;;;12.24;100.00;93594.66;5068163;28;20047;-73
2023/05/14 05:06:12;;;;;;;16.67;11.02;;;;;;;12.25;100.00;93590.28;5067470;28;20044;-73
2023/05/14 05:08:40;;;;;;;13.95;9.60;;;;;;;12.16;100.00;93588.00;5068690;28;20053;-73
2023/05/14 05:11:07;;;;;;;13.23;9.23;;;;;;;12.15;100.00;93588.19;5067976;28;20052;-72
2023/05/14 05:13:34;;;;;;;14.80;9.60;;;;;;;12.22;100.00;93595.88;5067438;28;20055;-73
2023/05/14 05:16:01;;;;;;;12.98;8.93;;;;;;;12.21;100.00;93597.66;5067560;28;20127;-73
2023/05/14 05:18:27;;;;;;;15.15;10.98;;;;;;;12.20;100.00;93606.38;5068357;28;20409;-73
2023/05/14 05:20:56;;;;;;;16.33;10.98;;;;;;;12.18;100.00;93605.81;5067279;28;20126;-73
2023/05/14 05:23:22;;;;;;;13.13;10.68;;;;;;;12.13;100.00;93603.84;5068189;28;20505;-73
2023/05/14 05:25:49;;;;;;;14.43;10.48;;;;;;;12.15;100.00;93601.06;5054704;28;20045;-73
2023/05/14 05:28:16;;;;;;;15.82;10.90;;;;;;;12.09;100.00;93594.97;5067630;28;20496;-73
2023/05/14 05:30:43;;;;;;;15.02;10.40;;;;;;;12.10;100.00;93603.47;5067904;28;20110;-73
2023/05/14 05:33:10;;;;;;;16.00;10.70;;;;;;;12.10;100.00;93588.84;5067898;28;20505;-73
2023/05/14 05:35:37;;;;;;;14.02;9.48;;;;;;;12.05;100.00;93611.03;5067371;28;20049;-73
2023/05/14 05:38:06;;;;;;;14.13;9.45;;;;;;;12.08;100.00;93611.41;5067963;28;20051;-73
2023/05/14 05:40:32;;;;;;;11.55;7.63;;;;;;;12.00;100.00;93601.34;5067836;28;20048;-73
2023/05/14 05:42:59;;;;;;;13.00;7.72;;;;;;;12.05;100.00;93618.75;5067842;28;20052;-73
2023/05/14 05:45:26;;;;;;;19.42;10.52;;;;;;;12.07;100.00;93611.63;5067422;28;20048;-72
2023/05/14 05:47:53;;;;;;;14.75;9.30;;;;;;;12.11;100.00;93620.50;5067426;28;20556;-72
2023/05/14 05:50:19;;;;;;;15.73;7.40;;;;;;;12.10;100.00;93616.34;5066942;28;20098;-72
2023/05/14 05:52:46;;;;;;;15.15;8.15;;;;;;;12.07;100.00;93609.06;5067619;28;20049;-72
2023/05/14 05:55:14;;;;;;;15.25;7.20;;;;;;;12.05;100.00;93604.13;5067662;28;20488;-72
2023/05/14 05:57:41;;;;;;;10.90;7.72;;;;;;;12.04;100.00;93602.53;5067734;28;20048;-72
2023/05/14 06:00:12;;;;;;;10.95;7.65;;;;;;;12.01;100.00;93590.03;5067185;28;20051;-72
2023/05/14 06:02:40;;;;;;;12.10;8.73;;;;;;;11.92;100.00;93581.00;5067888;28;20437;-72
2023/05/14 06:05:08;;;;;;;13.15;7.82;;;;;;;11.95;100.00;93585.75;5067145;28;20811;-72
2023/05/14 06:07:35;;;;;;;11.48;7.80;;;;;;;11.87;100.00;93587.56;5067594;28;20048;-72
2023/05/14 06:10:02;;;;;;;9.43;6.63;;;;;;;11.83;100.00;93588.19;5067092;28;20055;-72
2023/05/14 06:12:30;;;;;;;11.57;6.85;;;;;;;11.77;100.00;93593.16;5067133;28;20044;-72
2023/05/14 06:14:57;;;;;;;9.35;6.03;;;;;;;11.74;100.00;93573.00;5067125;28;21480;-72
2023/05/14 06:17:24;;;;;;;7.57;4.95;;;;;;;11.69;100.00;93570.25;5067022;28;20049;-72
2023/05/14 06:19:51;;;;;;;7.93;5.47;;;;;;;11.73;100.00;93579.16;5067000;28;20048;-72
2023/05/14 06:22:18;;;;;;;9.43;6.13;;;;;;;11.67;100.00;93589.47;5067217;28;20103;-72
2023/05/14 06:24:45;;;;;;;7.72;5.40;;;;;;;11.71;100.00;93599.13;5067028;28;20052;-72
2023/05/14 06:27:12;;;;;;;12.05;6.80;;;;;;;11.71;100.00;93593.97;5067337;28;20096;-72
2023/05/14 06:29:40;;;;;;;9.52;6.75;;;;;;;11.73;100.00;93592.00;5071142;28;20106;-72
2023/05/14 06:32:08;;;;;;;15.77;7.07;;;;;;;11.77;100.00;93582.09;5064941;28;20489;-72
2023/05/14 06:34:34;;;;;;;16.13;11.40;;;;;;;11.80;100.00;93586.03;5044969;28;20495;-73
2023/05/14 06:37:02;;;;;;;12.40;9.07;;;;;;;11.85;100.00;93593.94;5071356;28;20040;-72
2023/05/14 06:39:29;;;;;;;11.80;7.68;;;;;;;11.89;100.00;93587.34;5051420;28;20070;-72
2023/05/14 06:41:56;;;;;;;11.02;8.20;;;;;;;11.95;100.00;93571.06;5071087;28;20049;-72
2023/05/14 06:44:22;;;;;;;9.75;6.80;;;;;;;11.98;100.00;93575.81;5070669;28;20588;-72
2023/05/14 06:46:50;;;;;;;10.57;7.55;;;;;;;12.01;100.00;93575.41;5061201;28;20494;-72
2023/05/14 06:49:17;;;;;;;10.55;8.02;;;;;;;11.99;100.00;93564.50;5067618;28;20048;-73
2023/05/14 06:51:44;;;;;;;9.90;7.70;;;;;;;11.99;100.00;93561.94;5070848;28;20098;-72
2023/05/14 06:54:11;;;;;;;10.73;7.95;;;;;;;12.06;100.00;93561.91;5070414;28;20546;-73
2023/05/14 06:56:38;;;;;;;12.18;8.05;;;;;;;12.13;100.00;93560.06;5070938;28;20054;-73
2023/05/14 06:59:05;;;;;;;10.55;8.05;;;;;;;12.15;100.00;93555.53;5070929;28;20048;-73
2023/05/14 07:01:31;;;;;;;10.50;8.02;;;;;;;12.28;100.00;93564.13;5070444;28;20048;-73
2023/05/14 07:03:59;;;;;;;13.05;10.65;;;;;;;12.31;100.00;93560.34;5070798;28;20055;-73
2023/05/14 07:06:26;;;;;;;14.38;10.70;;;;;;;12.38;100.00;93579.09;5070495;28;20512;-73
2023/05/14 07:08:53;;;;;;;15.18;9.25;;;;;;;12.10;100.00;93591.41;5070419;28;20450;-73
2023/05/14 07:11:20;;;;;;;12.35;9.90;;;;;;;12.16;100.00;93600.88;5070711;28;20052;-73
2023/05/14 07:13:47;;;;;;;10.43;7.82;;;;;;;11.84;100.00;93621.44;5070473;28;20596;-73
2023/05/14 07:16:14;;;;;;;10.95;7.95;;;;;;;11.65;100.00;93591.44;5069699;28;20496;-73
2023/05/14 07:18:41;;;;;;;12.98;9.18;;;;;;;11.80;100.00;93611.78;5070491;28;20040;-73
2023/05/14 07:21:09;;;;;;;16.42;12.68;;;;;;;11.76;100.00;93608.81;5070334;28;20048;-72
2023/05/14 07:23:37;;;;;;;16.48;11.50;;;;;;;11.80;100.00;93607.41;5069817;28;20048;-72
2023/05/14 07:26:04;;;;;;;15.75;11.30;;;;;;;11.86;100.00;93600.66;5070191;28;20056;-72
2023/05/14 07:28:32;;;;;;;14.25;9.40;;;;;;;11.89;100.00;93590.72;5069993;28;20516;-72
2023/05/14 07:30:58;;;;;;;13.55;8.80;;;;;;;11.84;100.00;93598.28;5069921;28;20420;-72
2023/05/14 07:33:25;;;;;;;11.55;8.45;;;;;;;11.70;100.00;93587.25;5070038;28;20463;-72
2023/05/14 07:35:53;;;;;;;12.23;8.43;;;;;;;11.81;100.00;93606.41;5069734;28;20048;-72
2023/05/14 07:38:21;;;;;;;11.20;7.20;;;;;;;11.77;100.00;93611.16;5069312;28;20492;-72
2023/05/14 07:40:51;;;;;;;10.68;6.88;;;;;;;11.54;100.00;93611.69;5070132;28;20118;-72
2023/05/14 07:43:18;;;;;;;9.75;7.50;;;;;;;11.50;100.00;93620.81;5069977;28;20044;-72
2023/05/14 07:45:45;;;;;;;10.77;7.15;;;;;;;11.45;100.00;93615.50;5070163;28;20045;-72
2023/05/14 07:48:11;;;;;;;13.45;10.38;;;;;;;11.24;100.00;93619.91;5069571;28;20049;-72
2023/05/14 07:50:38;;;;;;;8.25;6.78;;;;;;;11.27;100.00;93629.00;5069892;28;20052;-72
2023/05/14 07:53:05;;;;;;;7.03;5.65;;;;;;;11.18;100.00;93611.25;5069907;28;20044;-72
2023/05/14 07:55:33;;;;;;;6.43;5.50;;;;;;;11.25;100.00;93603.50;5069513;28;20451;-72
2023/05/14 07:58:00;;;;;;;7.93;5.97;;;;;;;11.28;100.00;93595.38;5069675;28;20084;-72
2023/05/14 08:00:27;;;;;;;7.63;5.65;;;;;;;11.17;100.00;93596.03;5069524;28;20056;-72
2023/05/14 08:02:55;;;;;;;7.50;6.38;;;;;;;10.95;100.00;93586.00;5069555;28;20071;-72
2023/05/14 08:05:22;;;;;;;8.00;6.05;;;;;;;11.01;100.00;93582.63;5069583;28;20102;-72
2023/05/14 08:07:48;;;;;;;9.85;6.82;;;;;;;10.70;100.00;93589.22;5069549;28;20885;-72
2023/05/14 08:10:15;;;;;;;9.50;7.20;;;;;;;10.60;100.00;93581.16;5068821;28;20052;-72
2023/05/14 08:12:43;;;;;;;10.38;7.35;;;;;;;10.39;100.00;93578.56;5069533;28;20435;-72
2023/05/14 08:15:10;;;;;;;11.48;8.07;;;;;;;10.50;100.00;93579.75;5068966;28;20040;-72
2023/05/14 08:17:37;;;;;;;12.23;8.43;;;;;;;10.35;100.00;93571.44;5068997;28;20048;-72
2023/05/14 08:20:06;;;;;;;10.55;7.97;;;;;;;10.48;100.00;93570.69;5069167;28;20090;-72
2023/05/14 08:22:33;;;;;;;8.10;6.72;;;;;;;10.24;100.00;93571.06;5069231;28;20051;-72
2023/05/14 08:25:02;;;;;;;10.07;7.97;;;;;;;10.32;100.00;93582.13;5068952;28;20076;-72
2023/05/14 08:27:29;;;;;;;12.18;8.32;;;;;;;10.43;100.00;93587.47;5069371;28;20052;-72
2023/05/14 08:29:57;;;;;;;9.55;8.65;;;;;;;10.38;100.00;93584.66;5068448;28;20045;-72
2023/05/14 08:32:23;;;;;;;12.93;10.50;;;;;;;10.51;100.00;93578.78;5068912;28;20052;-72
2023/05/14 08:34:50;;;;;;;9.10;8.13;;;;;;;10.61;100.00;93562.97;5069028;28;20048;-72
2023/05/14 08:37:17;;;;;;;12.45;8.60;;;;;;;10.73;100.00;93560.56;5068642;28;20098;-72
2023/05/14 08:39:44;;;;;;;7.80;6.25;;;;;;;10.75;100.00;93560.34;5068716;28;20516;-72
2023/05/14 08:42:13;;;;;;;7.63;5.57;;;;;;;10.79;100.00;93566.69;5068635;28;20090;-72
2023/05/14 08:44:47;;;;;;;8.82;6.05;;;;;;;10.82;100.00;93569.63;5068530;28;20117;-72
2023/05/14 08:47:17;;;;;;;9.05;5.80;;;;;;;10.73;100.00;93570.06;5068691;28;20048;-72
2023/05/14 08:49:48;;;;;;;8.25;6.07;;;;;;;10.75;100.00;93574.00;5068391;28;20121;-72
2023/05/14 08:52:16;;;;;;;7.93;5.30;;;;;;;10.90;100.00;93575.53;5067755;28;20472;-72
2023/05/14 08:54:45;;;;;;;7.05;5.57;;;;;;;10.67;100.00;93585.28;5068713;28;20075;-72
2023/05/14 08:57:13;;;;;;;6.97;5.35;;;;;;;10.78;100.00;93572.81;5068294;28;20044;-73
2023/05/14 08:59:40;;;;;;;8.55;5.88;;;;;;;10.90;100.00;93575.53;5068543;28;20044;-73
2023/05/14 09:02:09;;;;;;;9.27;6.82;;;;;;;11.00;100.00;93570.75;5068394;28;20052;-73
2023/05/14 09:04:38;;;;;;;8.48;6.13;;;;;;;10.91;100.00;93565.06;5058922;28;20051;-73
2023/05/14 09:07:06;;;;;;;7.78;6.03;;;;;;;10.98;100.00;93566.81;5064721;28;20425;-73
2023/05/14 09:09:33;;;;;;;8.25;5.97;;;;;;;10.95;100.00;93558.53;5068829;28;20484;-72
2023/05/14 09:12:01;;;;;;;8.85;6.25;;;;;;;10.93;100.00;93568.19;5067985;28;20943;-73
2023/05/14 09:14:28;;;;;;;8.48;6.45;;;;;;;10.92;100.00;93565.84;5068674;28;20048;-73
2023/05/14 09:16:56;;;;;;;7.18;6.05;;;;;;;10.72;100.00;93569.25;5068264;28;20048;-72
2023/05/14 09:19:22;;;;;;;7.80;6.32;;;;;;;10.67;100.00;93564.72;5068136;28;20574;-72
2023/05/14 09:21:51;;;;;;;7.05;5.53;;;;;;;10.72;100.00;93571.03;5067930;28;20110;-72
2023/05/14 09:24:22;;;;;;;7.50;6.15;;;;;;;10.86;100.00;93569.22;5067585;28;20501;-72
2023/05/14 09:26:51;;;;;;;7.75;5.88;;;;;;;10.91;100.00;93577.09;5067733;28;20051;-72
2023/05/14 09:29:18;;;;;;;11.35;6.47;;;;;;;11.02;100.00;93570.56;5068064;28;20123;-72
2023/05/14 09:31:45;;;;;;;8.65;7.05;;;;;;;11.09;100.00;93559.28;5067659;28;20060;-73
2023/05/14 09:34:12;;;;;;;10.25;7.10;;;;;;;11.28;100.00;93554.22;5066455;28;20090;-73
2023/05/14 09:36:38;;;;;;;11.68;7.97;;;;;;;11.44;100.00;93547.81;5067684;28;20098;-72
2023/05/14 09:39:07;;;;;;;9.20;6.57;;;;;;;11.50;100.00;93543.66;5067530;28;20036;-73
2023/05/14 09:41:36;;;;;;;7.80;5.95;;;;;;;11.56;100.00;93535.09;5067379;28;20048;-73
2023/05/14 09:44:03;;;;;;;7.68;6.30;;;;;;;11.24;100.00;93532.50;5067470;28;20044;-73
2023/05/14 09:46:30;;;;;;;8.93;6.03;;;;;;;10.93;100.00;93534.78;5067373;28;20045;-73
2023/05/14 09:48:57;;;;;;;9.55;6.97;;;;;;;10.77;100.00;93525.75;5067194;28;20056;-73
2023/05/14 09:51:24;;;;;;;9.82;6.80;;;;;;;10.73;100.00;93514.31;5067346;28;20083;-72
2023/05/14 09:53:53;;;;;;;8.95;6.55;;;;;;;10.83;100.00;93508.72;5067750;28;20150;-72
2023/05/14 09:56:21;;;;;;;7.80;6.80;;;;;;;10.92;100.00;93504.94;5067050;28;20059;-73
2023/05/14 09:58:48;;;;;;;10.13;7.38;;;;;;;10.86;100.00;93508.34;5067257;28;20044;-73
2023/05/14 10:01:18;;;;;;;8.07;7.25;;;;;;;10.78;100.00;93501.63;5066932;28;20049;-73
2023/05/14 10:03:46;;;;;;;9.15;7.70;;;;;;;10.89;100.00;93509.72;5067260;28;20140;-73
2023/05/14 10:06:15;;;;;;;11.07;7.30;;;;;;;10.88;100.00;93492.72;5067690;28;20049;-73
2023/05/14 10:08:44;;;;;;;12.60;9.07;;;;;;;10.76;100.00;93475.38;5067754;28;20052;-73
2023/05/14 10:11:14;;;;;;;13.00;9.93;;;;;;;10.71;100.00;93485.47;5067256;28;20056;-73
2023/05/14 10:13:49;;;;;;;12.65;10.25;;;;;;;10.72;100.00;93483.66;5067608;28;20036;-73
2023/05/14 10:16:19;;;;;;;32.38;21.83;;;;;;;10.86;100.00;93481.84;5066748;28;20535;-73
2023/05/14 10:18:51;;;;;;;11.00;8.52;;;;;;;10.75;100.00;93512.34;5067401;28;20044;-73
2023/05/14 10:21:20;;;;;;;14.45;10.10;;;;;;;10.53;100.00;93507.47;5067402;28;20094;-73
2023/05/14 10:23:49;;;;;;;10.73;9.45;;;;;;;10.62;100.00;93495.19;5067450;28;20063;-73
2023/05/14 10:26:16;;;;;;;12.02;9.55;;;;;;;10.59;100.00;93518.69;5066738;28;20067;-73
2023/05/14 10:28:44;;;;;;;12.10;9.27;;;;;;;10.35;100.00;93536.31;5040770;28;20060;-73
2023/05/14 10:31:12;;;;;;;14.82;11.38;;;;;;;10.43;100.00;93513.00;5066796;28;20052;-73
2023/05/14 10:33:49;;;;;;;14.45;11.00;;;;;;;10.41;100.00;93509.81;5067314;28;20056;-73
2023/05/14 10:36:16;;;;;;;16.13;12.50;;;;;;;10.36;100.00;93519.91;5066646;28;20057;-73
2023/05/14 10:38:43;;;;;;;13.88;11.15;;;;;;;10.41;100.00;93545.78;5066854;28;20139;-73
2023/05/14 10:41:12;;;;;;;14.27;11.07;;;;;;;10.47;100.00;93515.97;5066942;28;20053;-73
2023/05/14 10:43:40;;;;;;;12.27;9.82;;;;;;;10.51;100.00;93524.06;5066941;28;20045;-73
2023/05/14 10:46:10;;;;;;;13.38;10.98;;;;;;;10.67;100.00;93507.41;5066213;28;20040;-73
2023/05/14 10:48:37;;;;;;;12.57;10.27;;;;;;;10.77;100.00;93496.69;5067091;28;20060;-73
2023/05/14 10:51:07;;;;;;;10.93;9.23;;;;;;;10.76;100.00;93492.56;5066618;28;20053;-73
2023/05/14 10:53:36;;;;;;;12.60;10.55;;;;;;;10.74;100.00;93495.31;5066262;28;20056;-73
2023/05/14 10:56:13;;;;;;;10.20;8.70;;;;;;;10.85;100.00;93508.53;5066706;28;20040;-73
2023/05/14 10:58:43;;;;;;;18.30;13.38;;;;;;;10.67;100.00;93507.41;5066598;28;20048;-73
2023/05/14 11:01:13;;;;;;;15.23;12.02;;;;;;;10.66;100.00;93511.75;5066931;28;20479;-72
2023/05/14 11:03:41;;;;;;;10.68;9.57;;;;;;;10.69;100.00;93497.72;5066836;28;20053;-73
2023/05/14 11:06:10;;;;;;;12.50;8.95;;;;;;;10.82;100.00;93505.38;5066609;28;20102;-73
2023/05/14 11:08:37;;;;;;;18.60;14.38;;;;;;;11.04;100.00;93496.59;5066238;28;20045;-73
2023/05/14 11:11:04;;;;;;;14.95;11.30;;;;;;;11.13;100.00;93499.72;5066541;28;20045;-73
2023/05/14 11:13:33;;;;;;;13.68;10.13;;;;;;;11.16;100.00;93494.94;5066999;28;20033;-73
2023/05/14 11:16:01;;;;;;;12.43;10.50;;;;;;;11.32;100.00;93493.69;5070378;28;20059;-73
2023/05/14 11:18:32;;;;;;;11.38;9.68;;;;;;;11.34;100.00;93483.19;5069945;28;20448;-73
2023/05/14 11:20:59;;;;;;;12.63;10.30;;;;;;;11.57;100.00;93494.72;5070299;28;20048;-73